createdAt,value
2018-07-01T00:01:02.201Z,98162.03
2018-07-01T00:03:38.126Z,98169.78
2018-07-01T00:06:15.223Z,98169.31
2018-07-01T00:08:52.089Z,98169.55
2018-07-01T00:11:29.558Z,98167.14
2018-07-01T00:14:05.182Z,98168.16
2018-07-01T00:16:42.068Z,98165.14
2018-07-01T00:19:17.980Z,98167.38
2018-07-01T00:21:53.709Z,98172.99
2018-07-01T00:24:29.163Z,98181.61
2018-07-01T00:27:05.418Z,98175.70
2018-07-01T00:29:41.608Z,98180.52
2018-07-01T00:32:17.384Z,98178.42
2018-07-01T00:34:54.996Z,98181.81
2018-07-01T00:37:30.610Z,98177.39
2018-07-01T00:40:06.693Z,98174.66
2018-07-01T00:42:42.474Z,98169.57
2018-07-01T00:45:18.947Z,98177.89
2018-07-01T00:47:54.493Z,98181.00
2018-07-01T00:50:29.957Z,98178.46
2018-07-01T00:53:06.084Z,98178.27
2018-07-01T00:55:42.616Z,98180.28
2018-07-01T00:58:18.433Z,98173.52
2018-07-01T01:00:55.023Z,98174.81
2018-07-01T01:03:31.030Z,98178.55
2018-07-01T01:06:07.967Z,98172.66
2018-07-01T01:08:43.415Z,98176.42
2018-07-01T01:11:18.954Z,98178.00
2018-07-01T01:13:55.016Z,98176.21
2018-07-01T01:16:32.153Z,98184.43
2018-07-01T01:19:09.359Z,98179.80
2018-07-01T01:21:46.057Z,98180.98
2018-07-01T01:24:22.182Z,98179.54
2018-07-01T01:26:57.525Z,98187.08
2018-07-01T01:29:34.064Z,98186.94
2018-07-01T01:32:09.747Z,98186.36
2018-07-01T01:34:46.231Z,98186.58
2018-07-01T01:37:22.093Z,98193.61
2018-07-01T01:39:57.894Z,98187.28
2018-07-01T01:42:43.081Z,98189.05
2018-07-01T01:45:38.565Z,98185.70
2018-07-01T01:48:19.437Z,98185.29
2018-07-01T01:51:03.479Z,98189.95
2018-07-01T01:53:48.784Z,98184.16
2018-07-01T01:56:33.955Z,98191.72
2018-07-01T01:59:14.367Z,98194.17
2018-07-01T02:01:59.619Z,98193.33
2018-07-01T02:05:10.793Z,98184.08
2018-07-01T02:07:51.459Z,98188.67
2018-07-01T02:10:28.176Z,98179.87
2018-07-01T02:13:04.619Z,98186.92
2018-07-01T02:15:44.285Z,98181.31
2018-07-01T02:18:20.817Z,98185.45
2018-07-01T02:20:57.127Z,98190.80
2018-07-01T02:23:39.169Z,98194.71
2018-07-01T02:26:16.500Z,98194.84
2018-07-01T02:28:53.592Z,98200.56
2018-07-01T02:31:29.186Z,98191.80
2018-07-01T02:34:05.094Z,98190.84
2018-07-01T02:36:40.598Z,98194.54
2018-07-01T02:39:16.795Z,98190.63
2018-07-01T02:41:53.091Z,98186.74
2018-07-01T02:44:30.413Z,98195.81
2018-07-01T02:47:07.850Z,98193.77
2018-07-01T02:49:44.417Z,98192.98
2018-07-01T02:52:20.214Z,98193.22
2018-07-01T02:54:56.737Z,98196.09
2018-07-01T02:57:32.566Z,98192.51
2018-07-01T03:00:09.477Z,98193.73
2018-07-01T03:02:45.622Z,98189.79
2018-07-01T03:05:22.509Z,98189.00
2018-07-01T03:07:59.111Z,98196.69
2018-07-01T03:10:35.369Z,98196.89
2018-07-01T03:13:11.849Z,98194.28
2018-07-01T03:15:48.190Z,98196.56
2018-07-01T03:18:25.742Z,98190.44
2018-07-01T03:21:01.875Z,98198.53
2018-07-01T03:23:37.315Z,98192.80
2018-07-01T03:26:12.628Z,98194.31
2018-07-01T03:28:48.488Z,98189.61
2018-07-01T03:31:25.060Z,98195.31
2018-07-01T03:34:01.488Z,98196.89
2018-07-01T03:36:38.048Z,98199.34
2018-07-01T03:39:14.002Z,98199.91
2018-07-01T03:41:50.791Z,98208.25
2018-07-01T03:44:26.438Z,98203.52
2018-07-01T03:47:03.410Z,98207.77
2018-07-01T03:49:39.083Z,98203.47
2018-07-01T03:52:14.854Z,98207.63
2018-07-01T03:54:51.093Z,98210.33
2018-07-01T03:57:26.793Z,98203.77
2018-07-01T04:00:02.448Z,98202.47
2018-07-01T04:02:38.759Z,98203.45
2018-07-01T04:05:15.177Z,98202.52
2018-07-01T04:07:51.206Z,98206.04
2018-07-01T04:10:26.928Z,98205.98
2018-07-01T04:13:03.372Z,98207.84
2018-07-01T04:15:40.233Z,98209.99
2018-07-01T04:18:17.267Z,98209.63
2018-07-01T04:20:53.129Z,98208.15
2018-07-01T04:23:30.284Z,98215.63
2018-07-01T04:26:05.854Z,98211.73
2018-07-01T04:28:41.870Z,98222.41
2018-07-01T04:31:19.140Z,98217.44
2018-07-01T04:33:56.238Z,98213.61
2018-07-01T04:36:31.995Z,98220.23
2018-07-01T04:39:08.893Z,98218.61
2018-07-01T04:41:45.463Z,98219.66
2018-07-01T04:44:21.233Z,98227.00
2018-07-01T04:46:57.560Z,98230.06
2018-07-01T04:49:33.802Z,98231.67
2018-07-01T04:52:10.009Z,98232.03
2018-07-01T04:54:46.565Z,98230.93
2018-07-01T04:57:23.021Z,98236.80
2018-07-01T04:59:59.831Z,98227.41
2018-07-01T05:02:35.725Z,98232.77
2018-07-01T05:05:12.315Z,98234.40
2018-07-01T05:07:48.029Z,98234.94
2018-07-01T05:10:23.805Z,98234.09
2018-07-01T05:13:01.149Z,98230.19
2018-07-01T05:15:37.273Z,98237.89
2018-07-01T05:18:13.833Z,98239.68
2018-07-01T05:20:49.315Z,98238.01
2018-07-01T05:23:25.133Z,98239.73
2018-07-01T05:26:00.713Z,98241.06
2018-07-01T05:28:36.561Z,98244.48
2018-07-01T05:31:12.965Z,98245.89
2018-07-01T05:33:48.989Z,98237.72
2018-07-01T05:36:24.821Z,98240.59
2018-07-01T05:39:02.152Z,98242.12
2018-07-01T05:41:40.127Z,98244.00
2018-07-01T05:44:16.055Z,98244.22
2018-07-01T05:46:51.455Z,98241.46
2018-07-01T05:49:27.693Z,98240.41
2018-07-01T05:52:03.342Z,98238.91
2018-07-01T05:54:38.851Z,98239.12
2018-07-01T05:57:15.029Z,98240.23
2018-07-01T05:59:51.570Z,98238.61
2018-07-01T06:02:27.179Z,98242.36
2018-07-01T06:05:03.623Z,98242.72
2018-07-01T06:07:39.157Z,98239.69
2018-07-01T06:10:15.825Z,98243.80
2018-07-01T06:12:51.645Z,98235.73
2018-07-01T06:15:28.145Z,98233.58
2018-07-01T06:18:04.367Z,98231.84
2018-07-01T06:20:41.349Z,98228.05
2018-07-01T06:23:17.460Z,98231.02
2018-07-01T06:25:53.288Z,98226.52
2018-07-01T06:28:30.169Z,98227.41
2018-07-01T06:31:06.308Z,98226.29
2018-07-01T06:33:43.159Z,98228.37
2018-07-01T06:36:21.568Z,98220.63
2018-07-01T06:38:57.899Z,98225.67
2018-07-01T06:41:35.032Z,98221.08
2018-07-01T06:44:12.334Z,98215.67
2018-07-01T06:46:48.989Z,98221.34
2018-07-01T06:49:24.578Z,98221.61
2018-07-01T06:52:02.089Z,98219.10
2018-07-01T06:54:38.644Z,98216.86
2018-07-01T06:57:14.732Z,98217.44
2018-07-01T06:59:51.674Z,98210.29
2018-07-01T07:02:29.106Z,98212.73
2018-07-01T07:05:05.467Z,98214.17
2018-07-01T07:07:43.125Z,98206.25
2018-07-01T07:10:20.544Z,98205.78
2018-07-01T07:12:56.318Z,98203.24
2018-07-01T07:15:32.875Z,98207.42
2018-07-01T07:18:09.744Z,98206.84
2018-07-01T07:20:46.326Z,98201.11
2018-07-01T07:23:22.176Z,98198.80
2018-07-01T07:25:58.014Z,98199.66
2018-07-01T07:28:35.114Z,98186.66
2018-07-01T07:31:11.694Z,98193.11
2018-07-01T07:33:47.658Z,98187.73
2018-07-01T07:36:24.026Z,98195.61
2018-07-01T07:39:00.148Z,98199.31
2018-07-01T07:41:35.808Z,98195.61
2018-07-01T07:44:12.358Z,98188.44
2018-07-01T07:46:49.348Z,98193.65
2018-07-01T07:49:29.780Z,98187.14
2018-07-01T07:52:05.919Z,98183.70
2018-07-01T07:54:42.324Z,98176.05
2018-07-01T07:57:25.302Z,98174.66
2018-07-01T08:00:01.336Z,98183.84
2018-07-01T08:02:37.992Z,98182.46
2018-07-01T08:05:14.586Z,98179.37
2018-07-01T08:07:50.846Z,98180.37
2018-07-01T08:10:29.936Z,98180.68
2018-07-01T08:13:06.270Z,98181.13
2018-07-01T08:15:42.973Z,98175.45
2018-07-01T08:18:19.638Z,98169.23
2018-07-01T08:20:55.885Z,98167.95
2018-07-01T08:23:32.913Z,98170.38
2018-07-01T08:26:30.670Z,98170.05
2018-07-01T08:29:10.257Z,98166.78
2018-07-01T08:32:28.611Z,98164.36
2018-07-01T08:38:27.223Z,98162.05
2018-07-01T08:41:17.739Z,98165.12
2018-07-01T08:43:55.510Z,98171.42
2018-07-01T08:46:42.993Z,98166.67
2018-07-01T08:59:26.609Z,98169.86
2018-07-01T09:05:32.986Z,98171.48
2018-07-01T09:08:37.119Z,98169.52
2018-07-01T09:11:13.143Z,98162.28
2018-07-01T09:13:57.952Z,98160.12
2018-07-01T09:32:46.396Z,98153.72
2018-07-01T09:35:35.658Z,98150.25
2018-07-01T10:20:34.023Z,98134.64
2018-07-01T10:23:29.723Z,98141.08
2018-07-01T10:26:27.658Z,98132.81
2018-07-01T10:29:39.476Z,98125.16
2018-07-01T10:32:27.614Z,98131.33
2018-07-01T10:35:16.319Z,98128.58
2018-07-01T10:38:46.893Z,98125.67
2018-07-01T10:44:48.755Z,98123.28
2018-07-01T10:47:43.708Z,98128.30
2018-07-01T10:50:21.498Z,98128.13
2018-07-01T10:52:59.198Z,98126.68
2018-07-01T10:55:36.359Z,98128.16
2018-07-01T10:58:18.925Z,98119.91
2018-07-01T11:06:33.348Z,98123.19
2018-07-01T11:09:15.999Z,98114.05
2018-07-01T11:11:52.252Z,98111.70
2018-07-01T11:14:42.424Z,98101.28
2018-07-01T11:17:44.526Z,98108.25
2018-07-01T11:20:34.431Z,98104.81
2018-07-01T11:23:21.043Z,98103.20
2018-07-01T11:29:02.651Z,98104.42
2018-07-01T11:31:48.179Z,98101.36
2018-07-01T11:34:25.749Z,98097.18
2018-07-01T11:40:12.392Z,98081.97
2018-07-01T11:42:56.813Z,98085.34
2018-07-01T11:51:17.552Z,98087.71
2018-07-01T11:54:06.984Z,98084.98
2018-07-01T11:56:45.706Z,98083.27
2018-07-01T11:59:40.991Z,98083.03
2018-07-01T12:02:33.102Z,98080.36
2018-07-01T12:05:16.663Z,98075.33
2018-07-01T12:07:48.650Z,98070.04
2018-07-01T12:10:32.190Z,98066.47
2018-07-01T12:13:27.516Z,98060.67
2018-07-01T12:16:17.325Z,98071.63
2018-07-01T12:18:56.079Z,98078.81
2018-07-01T12:21:39.512Z,98071.09
2018-07-01T12:24:35.490Z,98073.30
2018-07-01T12:27:22.082Z,98073.61
2018-07-01T12:33:04.992Z,98063.48
2018-07-01T12:35:56.135Z,98053.86
2018-07-01T12:38:40.620Z,98053.64
2018-07-01T12:44:38.433Z,98050.70
2018-07-01T12:47:23.371Z,98048.02
2018-07-01T12:50:10.405Z,98059.80
2018-07-01T12:52:48.584Z,98051.27
2018-07-01T12:55:30.791Z,98039.03
2018-07-01T12:58:11.377Z,98045.51
2018-07-01T13:00:57.751Z,98038.25
2018-07-01T13:03:36.413Z,98041.22
2018-07-01T13:06:15.162Z,98027.50
2018-07-01T13:08:56.508Z,98029.11
2018-07-01T13:11:51.762Z,98019.67
2018-07-01T13:14:33.107Z,98019.70
2018-07-01T13:17:13.291Z,98014.69
2018-07-01T13:19:51.769Z,98020.17
2018-07-01T13:22:33.489Z,98004.73
2018-07-01T13:25:18.684Z,98007.16
2018-07-01T13:27:59.732Z,98008.69
2018-07-01T13:30:37.343Z,98008.31
2018-07-01T13:33:13.596Z,98010.22
2018-07-01T13:35:55.980Z,98004.97
2018-07-01T13:38:35.736Z,98003.69
2018-07-01T13:41:18.077Z,98002.73
2018-07-01T13:43:58.840Z,98004.98
2018-07-01T13:46:34.781Z,97999.94
2018-07-01T13:49:10.722Z,97999.70
2018-07-01T13:51:46.644Z,97991.88
2018-07-01T13:54:23.761Z,97998.28
2018-07-01T13:57:03.743Z,97994.11
2018-07-01T13:59:39.938Z,97993.55
2018-07-01T14:02:16.136Z,97988.91
2018-07-01T14:04:53.959Z,97985.94
2018-07-01T14:07:43.623Z,97983.00
2018-07-01T14:10:19.693Z,97978.58
2018-07-01T14:15:55.683Z,97985.55
2018-07-01T14:18:32.915Z,97980.11
2018-07-01T14:21:13.706Z,97975.16
2018-07-01T14:23:54.623Z,97979.20
2018-07-01T14:26:44.646Z,97984.09
2018-07-01T14:29:34.545Z,97975.00
2018-07-01T14:32:27.233Z,97977.17
2018-07-01T14:35:07.515Z,97969.81
2018-07-01T14:37:45.500Z,97971.30
2018-07-01T14:40:27.209Z,97966.39
2018-07-01T14:43:09.854Z,97961.33
2018-07-01T14:48:55.487Z,97963.94
2018-07-01T14:51:43.673Z,97969.02
2018-07-01T14:54:37.710Z,97967.55
2018-07-01T14:57:17.320Z,97970.55
2018-07-01T14:59:59.653Z,97960.13
2018-07-01T15:02:48.459Z,97956.16
2018-07-01T15:05:30.276Z,97965.94
2018-07-01T15:08:13.630Z,97961.97
2018-07-01T15:13:49.508Z,97964.27
2018-07-01T15:16:33.828Z,97962.62
2018-07-01T15:19:13.087Z,97958.53
2018-07-01T15:22:00.165Z,97963.62
2018-07-01T15:24:46.844Z,97956.69
2018-07-01T15:27:29.122Z,97958.89
2018-07-01T15:30:13.365Z,97950.20
2018-07-01T15:32:54.997Z,97955.59
2018-07-01T15:35:36.271Z,97951.73
2018-07-01T15:38:20.455Z,97954.99
2018-07-01T15:41:15.500Z,97951.52
2018-07-01T15:44:07.698Z,97946.28
2018-07-01T15:46:44.292Z,97941.45
2018-07-01T15:49:20.825Z,97937.32
2018-07-01T15:51:58.922Z,97934.91
2018-07-01T15:54:35.743Z,97942.44
2018-07-01T15:57:11.441Z,97940.53
2018-07-01T15:59:48.327Z,97930.72
2018-07-01T16:02:30.094Z,97924.08
2018-07-01T16:05:07.922Z,97936.16
2018-07-01T16:07:43.918Z,97941.98
2018-07-01T16:10:24.324Z,97924.95
2018-07-01T16:13:04.863Z,97932.22
2018-07-01T16:15:55.847Z,97927.67
2018-07-01T16:21:32.695Z,97938.38
2018-07-01T16:24:10.277Z,97929.44
2018-07-01T16:28:04.520Z,97931.95
2018-07-01T16:33:34.315Z,97928.70
2018-07-01T16:39:34.885Z,97937.00
2018-07-01T16:42:11.596Z,97930.05
2018-07-01T16:45:11.626Z,97940.12
2018-07-01T16:48:02.978Z,97930.69
2018-07-01T16:50:41.890Z,97932.95
2018-07-01T16:53:17.579Z,97945.31
2018-07-01T16:55:53.277Z,97947.91
2018-07-01T16:58:33.359Z,97939.70
2018-07-01T17:01:12.829Z,97944.37
2018-07-01T17:03:49.005Z,97947.61
2018-07-01T17:06:29.389Z,97948.51
2018-07-01T17:09:15.032Z,97951.96
2018-07-01T17:11:51.702Z,97952.55
2018-07-01T17:14:33.680Z,97953.19
2018-07-01T17:17:14.978Z,97958.59
2018-07-01T17:19:57.974Z,97963.80
2018-07-01T17:22:34.081Z,97961.97
2018-07-01T17:25:09.581Z,97970.92
2018-07-01T17:27:45.952Z,97961.44
2018-07-01T17:30:22.644Z,97970.98
2018-07-01T17:33:34.726Z,97963.17
2018-07-01T17:36:10.846Z,97972.38
2018-07-01T17:38:50.946Z,97977.62
2018-07-01T17:41:27.571Z,97981.44
2018-07-01T17:44:03.456Z,97980.45
2018-07-01T17:46:39.975Z,97979.38
2018-07-01T17:49:16.549Z,97983.43
2018-07-01T17:51:52.881Z,97983.16
2018-07-01T17:54:31.356Z,97986.27
2018-07-01T17:57:07.485Z,97988.52
2018-07-01T17:59:43.771Z,97981.66
2018-07-01T18:02:20.324Z,97986.20
2018-07-01T18:04:56.887Z,97997.56
2018-07-01T18:13:24.446Z,97990.34
2018-07-01T18:24:35.141Z,97988.53
2018-07-01T18:27:12.631Z,97991.66
2018-07-01T18:30:05.031Z,97996.92
2018-07-01T18:32:48.079Z,97997.19
2018-07-01T18:35:36.149Z,98000.55
2018-07-01T18:41:32.553Z,97996.19
2018-07-01T18:44:24.081Z,98000.58
2018-07-01T18:47:17.810Z,97999.62
2018-07-01T18:50:15.344Z,98006.80
2018-07-01T18:53:28.233Z,98013.34
2018-07-01T18:56:34.195Z,98002.95
2018-07-01T19:02:19.995Z,98015.94
2018-07-01T19:05:18.773Z,98018.30
2018-07-01T19:17:18.815Z,98026.55
2018-07-01T19:20:11.055Z,98024.70
2018-07-01T19:23:03.850Z,98027.30
2018-07-01T19:25:40.310Z,98029.67
2018-07-01T19:28:19.455Z,98037.94
2018-07-01T19:31:07.721Z,98037.97
2018-07-01T19:33:46.909Z,98041.91
2018-07-01T19:36:33.145Z,98040.14
2018-07-01T19:39:20.406Z,98038.83
2018-07-01T19:41:59.638Z,98038.73
2018-07-01T19:44:35.920Z,98040.52
2018-07-01T19:47:14.344Z,98045.45
2018-07-01T19:49:49.858Z,98046.27
2018-07-01T19:52:25.552Z,98046.89
2018-07-01T19:55:02.880Z,98055.86
2018-07-01T19:57:39.865Z,98048.42
2018-07-01T20:00:16.391Z,98043.39
2018-07-01T20:02:59.468Z,98059.71
2018-07-01T20:05:41.619Z,98062.47
2018-07-01T20:08:19.533Z,98060.67
2018-07-01T20:10:57.146Z,98069.98
2018-07-01T20:13:33.342Z,98062.34
2018-07-01T20:16:09.452Z,98058.92
2018-07-01T20:18:46.827Z,98064.14
2018-07-01T20:21:24.036Z,98064.61
2018-07-01T20:27:18.314Z,98065.45
2018-07-01T20:29:55.675Z,98067.46
2018-07-01T20:32:33.120Z,98061.86
2018-07-01T20:35:08.965Z,98063.84
2018-07-01T20:37:45.228Z,98065.52
2018-07-01T20:40:22.722Z,98072.56
2018-07-01T20:42:59.617Z,98070.80
2018-07-01T20:45:41.080Z,98070.86
2018-07-01T20:48:20.824Z,98074.09
2018-07-01T20:50:58.206Z,98077.25
2018-07-01T20:53:39.028Z,98085.31
2018-07-01T20:56:18.442Z,98086.86
2018-07-01T20:59:06.442Z,98086.39
2018-07-01T21:01:48.868Z,98086.25
2018-07-01T21:04:30.321Z,98085.98
2018-07-01T21:07:09.142Z,98086.61
2018-07-01T21:09:51.353Z,98085.84
2018-07-01T21:12:33.244Z,98088.71
2018-07-01T21:15:17.365Z,98091.66
2018-07-01T21:18:01.906Z,98095.89
2018-07-01T21:20:48.518Z,98099.05
2018-07-01T21:23:36.084Z,98099.25
2018-07-01T21:26:12.545Z,98105.27
2018-07-01T21:28:54.160Z,98101.78
2018-07-01T21:31:52.479Z,98101.89
2018-07-01T21:34:40.295Z,98100.02
2018-07-01T21:37:25.276Z,98100.23
2018-07-01T21:40:08.177Z,98105.07
2018-07-01T21:42:51.203Z,98108.28
2018-07-01T21:45:34.498Z,98108.11
2018-07-01T21:48:18.388Z,98114.34
2018-07-01T21:51:04.721Z,98115.97
2018-07-01T21:53:48.847Z,98110.70
2018-07-01T21:59:22.811Z,98112.01
2018-07-01T22:02:07.555Z,98111.30
2018-07-01T22:04:46.968Z,98108.73
2018-07-01T22:07:23.520Z,98111.34
2018-07-01T22:10:00.518Z,98111.70
2018-07-01T22:12:47.344Z,98114.19
2018-07-01T22:15:34.760Z,98112.77
2018-07-01T22:18:12.252Z,98121.52
2018-07-01T22:20:48.015Z,98120.11
2018-07-01T22:23:24.166Z,98119.66
2018-07-01T22:25:59.959Z,98121.36
2018-07-01T22:28:38.575Z,98129.69
2018-07-01T22:31:14.967Z,98125.19
2018-07-01T22:33:51.502Z,98127.08
2018-07-01T22:36:27.993Z,98125.75
2018-07-01T22:39:05.107Z,98122.65
2018-07-01T22:41:41.230Z,98129.41
2018-07-01T22:44:17.177Z,98123.48
2018-07-01T22:46:53.698Z,98130.06
2018-07-01T22:49:30.414Z,98124.74
2018-07-01T22:52:06.261Z,98126.44
2018-07-01T22:54:41.967Z,98128.36
2018-07-01T22:57:18.051Z,98131.73
2018-07-01T22:59:54.496Z,98131.34
2018-07-01T23:02:51.966Z,98134.52
2018-07-01T23:05:27.696Z,98144.91
2018-07-01T23:08:03.484Z,98143.11
2018-07-01T23:10:40.062Z,98148.37
2018-07-01T23:13:15.988Z,98142.38
2018-07-01T23:15:53.062Z,98146.58
2018-07-01T23:18:29.120Z,98144.52
2018-07-01T23:21:05.485Z,98144.75
2018-07-01T23:23:41.515Z,98150.42
2018-07-01T23:26:17.625Z,98147.48
2018-07-01T23:28:53.394Z,98149.94
2018-07-01T23:31:29.887Z,98142.91
2018-07-01T23:34:05.636Z,98144.98
2018-07-01T23:36:42.408Z,98145.91
2018-07-01T23:39:19.133Z,98140.47
2018-07-01T23:41:54.980Z,98143.98
2018-07-01T23:44:30.686Z,98135.08
2018-07-01T23:47:06.683Z,98127.57
2018-07-01T23:49:42.327Z,98135.13
2018-07-01T23:52:18.923Z,98128.81
2018-07-01T23:54:55.569Z,98134.90
2018-07-01T23:57:33.678Z,98138.98
